createdAt,value
2019-04-20T00:01:42.788Z,6.27
2019-04-20T00:04:20.675Z,6.30
2019-04-20T00:06:48.569Z,6.90
2019-04-20T00:09:21.083Z,8.30
2019-04-20T00:12:00.085Z,6.80
2019-04-20T00:14:26.339Z,6.70
2019-04-20T00:16:52.759Z,6.60
2019-04-20T00:19:29.257Z,7.70
2019-04-20T00:22:01.905Z,7.53
2019-04-20T00:24:43.841Z,7.17
2019-04-20T00:27:40.241Z,6.97
2019-04-20T00:29:58.733Z,7.70
2019-04-20T00:32:29.521Z,7.73
2019-04-20T00:34:48.879Z,6.93
2019-04-20T00:37:19.257Z,7.60
2019-04-20T00:39:48.901Z,8.53
2019-04-20T00:42:24.845Z,7.37
2019-04-20T00:44:56.350Z,8.53
2019-04-20T00:47:37.340Z,7.90
2019-04-20T00:50:08.000Z,8.37
2019-04-20T00:52:44.116Z,11.60
2019-04-20T00:54:58.095Z,7.50
2019-04-20T00:57:38.713Z,9.03
2019-04-20T01:00:17.710Z,6.67
2019-04-20T01:02:44.456Z,10.00
2019-04-20T01:05:24.322Z,8.53
2019-04-20T01:07:56.310Z,8.07
2019-04-20T01:10:23.651Z,7.07
2019-04-20T01:13:01.148Z,9.27
2019-04-20T01:15:36.319Z,9.53
2019-04-20T01:17:58.289Z,9.93
2019-04-20T01:20:29.473Z,9.57
2019-04-20T01:23:08.195Z,7.90
2019-04-20T01:25:40.164Z,9.47
2019-04-20T01:28:24.781Z,9.90
2019-04-20T01:30:44.622Z,10.03
2019-04-20T01:33:26.056Z,10.20
2019-04-20T01:36:00.697Z,9.90
2019-04-20T01:38:26.213Z,9.53
2019-04-20T01:40:44.760Z,10.10
2019-04-20T01:43:18.434Z,7.83
2019-04-20T01:45:52.581Z,9.50
2019-04-20T01:48:22.521Z,9.83
2019-04-20T01:50:59.648Z,9.10
2019-04-20T01:53:56.531Z,10.77
2019-04-20T01:56:27.901Z,8.20
2019-04-20T01:59:05.004Z,8.43
2019-04-20T02:01:39.665Z,9.13
2019-04-20T02:04:16.960Z,9.40
2019-04-20T02:06:47.185Z,10.43
2019-04-20T02:09:17.191Z,10.37
2019-04-20T02:11:47.377Z,10.20
2019-04-20T02:14:26.615Z,8.97
2019-04-20T02:16:51.527Z,9.10
2019-04-20T02:19:33.379Z,10.30
2019-04-20T02:22:03.988Z,8.47
2019-04-20T02:24:19.664Z,10.57
2019-04-20T02:26:51.559Z,8.27
2019-04-20T02:29:41.881Z,8.20
2019-04-20T02:34:59.797Z,10.47
2019-04-20T02:37:55.112Z,7.50
2019-04-20T02:47:47.810Z,9.60
2019-04-20T02:50:20.675Z,10.07
2019-04-20T02:55:24.060Z,11.80
2019-04-20T03:00:19.421Z,11.03
2019-04-20T03:02:41.534Z,9.30
2019-04-20T03:05:06.939Z,8.73
2019-04-20T03:07:41.493Z,12.43
2019-04-20T03:10:17.730Z,10.47
2019-04-20T03:12:50.629Z,8.90
2019-04-20T03:15:22.615Z,8.43
2019-04-20T03:17:58.654Z,8.83
2019-04-20T03:20:36.803Z,9.53
2019-04-20T03:25:58.388Z,9.77
2019-04-20T03:28:42.970Z,11.23
2019-04-20T03:32:10.342Z,8.73
2019-04-20T03:36:57.185Z,8.90
2019-04-20T03:39:18.069Z,11.90
2019-04-20T03:41:37.693Z,8.33
2019-04-20T03:44:08.988Z,9.23
2019-04-20T03:46:41.998Z,10.60
2019-04-20T03:49:36.606Z,9.10
2019-04-20T03:51:58.781Z,10.17
2019-04-20T03:54:24.982Z,8.93
2019-04-20T03:57:12.483Z,8.77
2019-04-20T03:59:50.639Z,8.07
2019-04-20T04:05:13.960Z,8.73
2019-04-20T04:07:35.396Z,9.73
2019-04-20T04:10:16.012Z,9.30
2019-04-20T04:13:11.761Z,9.07
2019-04-20T04:15:51.939Z,9.23
2019-04-20T04:18:25.980Z,10.80
2019-04-20T04:20:58.674Z,10.07
2019-04-20T04:23:38.092Z,7.70
2019-04-20T04:26:20.377Z,7.53
2019-04-20T04:28:41.197Z,9.50
2019-04-20T04:36:13.833Z,7.17
2019-04-20T04:38:53.345Z,8.43
2019-04-20T04:43:49.942Z,8.27
2019-04-20T04:46:08.110Z,7.20
2019-04-20T04:48:43.859Z,6.70
2019-04-20T04:51:18.520Z,8.00
2019-04-20T04:53:57.283Z,9.00
2019-04-20T04:56:18.885Z,6.63
2019-04-20T04:58:47.360Z,8.10
2019-04-20T05:01:22.440Z,8.13
2019-04-20T05:04:19.263Z,6.53
2019-04-20T05:06:35.598Z,10.00
2019-04-20T05:08:55.115Z,7.73
2019-04-20T05:11:21.923Z,7.63
2019-04-20T05:13:58.591Z,8.53
2019-04-20T05:16:40.987Z,6.83
2019-04-20T05:21:53.870Z,9.80
2019-04-20T05:24:28.836Z,7.93
2019-04-20T05:27:18.005Z,8.67
2019-04-20T05:29:29.616Z,10.83
2019-04-20T05:32:05.533Z,8.93
2019-04-20T05:34:52.592Z,8.30
2019-04-20T05:37:27.227Z,8.63
2019-04-20T05:39:50.885Z,8.20
2019-04-20T05:42:27.836Z,7.97
2019-04-20T05:44:55.921Z,8.70
2019-04-20T05:47:29.201Z,7.50
2019-04-20T05:49:56.081Z,8.17
2019-04-20T05:52:50.614Z,7.70
2019-04-20T05:54:57.309Z,10.57
2019-04-20T05:57:52.437Z,7.77
2019-04-20T06:00:07.209Z,7.70
2019-04-20T06:02:34.761Z,7.40
2019-04-20T06:05:23.680Z,7.27
2019-04-20T06:07:42.036Z,7.47
2019-04-20T06:10:18.522Z,8.07
2019-04-20T06:12:41.520Z,7.93
2019-04-20T06:15:10.699Z,7.73
2019-04-20T06:18:03.844Z,6.60
2019-04-20T06:23:33.805Z,7.60
2019-04-20T06:26:13.421Z,10.77
2019-04-20T06:28:26.740Z,9.03
2019-04-20T06:30:52.861Z,8.07
2019-04-20T06:36:55.844Z,7.73
2019-04-20T06:39:17.233Z,9.60
2019-04-20T06:42:02.258Z,8.83
2019-04-20T06:44:16.483Z,9.37
2019-04-20T06:46:48.643Z,9.50
2019-04-20T06:49:18.334Z,9.43
2019-04-20T06:52:01.682Z,7.13
2019-04-20T06:54:28.915Z,9.03
2019-04-20T06:57:07.342Z,7.63
2019-04-20T07:02:17.065Z,7.20
2019-04-20T07:04:50.705Z,8.63
2019-04-20T07:07:14.630Z,7.90
2019-04-20T07:12:17.129Z,8.90
2019-04-20T07:14:42.733Z,8.27
2019-04-20T07:17:39.177Z,9.63
2019-04-20T07:20:01.448Z,9.63
2019-04-20T07:22:49.258Z,7.33
2019-04-20T07:25:18.955Z,7.53
2019-04-20T07:27:49.285Z,9.43
2019-04-20T07:30:19.462Z,7.37
2019-04-20T07:32:56.450Z,8.33
2019-04-20T07:35:21.892Z,10.00
2019-04-20T07:40:20.123Z,7.90
2019-04-20T07:42:56.470Z,7.70
2019-04-20T07:45:31.666Z,9.23
2019-04-20T07:48:01.650Z,12.23
2019-04-20T07:50:26.754Z,7.83
2019-04-20T07:52:51.208Z,8.00
2019-04-20T07:58:01.632Z,8.00
2019-04-20T08:00:48.218Z,9.97
2019-04-20T08:03:35.178Z,9.87
2019-04-20T08:06:02.434Z,8.80
2019-04-20T08:08:40.350Z,7.67
2019-04-20T08:11:13.903Z,6.40
2019-04-20T08:13:51.680Z,6.77
2019-04-20T08:16:23.094Z,11.30
2019-04-20T08:18:55.201Z,9.63
2019-04-20T08:21:25.667Z,6.40
2019-04-20T08:23:55.406Z,6.77
2019-04-20T08:26:16.243Z,6.60
2019-04-20T08:28:50.819Z,10.07
2019-04-20T08:31:29.786Z,7.57
2019-04-20T08:34:39.719Z,7.30
2019-04-20T08:37:06.057Z,8.57
2019-04-20T08:39:51.077Z,7.50
2019-04-20T08:42:07.451Z,8.80
2019-04-20T08:44:58.970Z,9.87
2019-04-20T08:47:21.499Z,6.50
2019-04-20T08:50:11.987Z,6.70
2019-04-20T08:55:12.474Z,6.13
2019-04-20T08:57:22.533Z,7.30
2019-04-20T08:59:53.051Z,6.73
2019-04-20T09:02:23.880Z,7.30
2019-04-20T09:05:02.440Z,5.70
2019-04-20T09:07:28.239Z,7.83
2019-04-20T09:10:24.278Z,8.40
2019-04-20T09:12:45.040Z,6.77
2019-04-20T09:15:03.800Z,7.20
2019-04-20T09:17:44.999Z,5.53
2019-04-20T09:20:16.458Z,8.43
2019-04-20T09:23:02.252Z,8.13
2019-04-20T09:28:22.427Z,10.90
2019-04-20T09:31:18.455Z,7.17
2019-04-20T09:33:51.396Z,7.40
2019-04-20T09:36:18.240Z,8.00
2019-04-20T09:39:07.764Z,6.60
2019-04-20T09:41:46.642Z,5.93
2019-04-20T09:43:58.319Z,6.67
2019-04-20T09:46:30.950Z,8.57
2019-04-20T09:49:06.338Z,6.60
2019-04-20T09:51:51.167Z,7.33
2019-04-20T09:54:22.825Z,7.30
2019-04-20T09:56:55.590Z,6.57
2019-04-20T09:59:26.590Z,6.13
2019-04-20T10:01:44.842Z,6.67
2019-04-20T10:04:07.624Z,6.13
2019-04-20T10:06:39.302Z,6.83
2019-04-20T10:09:11.515Z,7.97
2019-04-20T10:11:43.712Z,6.73
2019-04-20T10:14:12.499Z,7.97
2019-04-20T10:16:42.023Z,6.77
2019-04-20T10:19:11.969Z,9.70
2019-04-20T10:21:43.655Z,9.10
2019-04-20T10:24:13.099Z,7.40
2019-04-20T10:26:42.745Z,6.70
2019-04-20T10:29:15.358Z,6.73
2019-04-20T10:31:51.409Z,6.47
2019-04-20T10:34:15.865Z,6.67
2019-04-20T10:36:51.399Z,7.03
2019-04-20T10:39:28.776Z,7.03
2019-04-20T10:42:02.087Z,7.03
2019-04-20T10:44:32.682Z,6.40
2019-04-20T10:47:05.218Z,6.83
2019-04-20T10:49:35.307Z,5.90
2019-04-20T10:52:05.599Z,6.80
2019-04-20T10:54:34.719Z,9.13
2019-04-20T10:57:05.764Z,6.70
2019-04-20T10:59:35.378Z,6.03
2019-04-20T11:02:05.658Z,7.90
2019-04-20T11:04:35.159Z,6.97
2019-04-20T11:07:04.826Z,8.43
2019-04-20T11:09:34.608Z,7.40
2019-04-20T11:12:06.274Z,5.80
2019-04-20T11:14:40.088Z,7.83
2019-04-20T11:17:06.962Z,6.33
2019-04-20T11:19:37.119Z,8.20
2019-04-20T11:22:08.399Z,6.93
2019-04-20T11:24:39.019Z,6.60
2019-04-20T11:27:09.922Z,6.23
2019-04-20T11:29:40.268Z,6.30
2019-04-20T11:32:12.335Z,8.00
2019-04-20T11:34:42.463Z,6.83
2019-04-20T11:37:12.986Z,6.17
2019-04-20T11:39:45.310Z,6.27
2019-04-20T11:42:14.960Z,6.20
2019-04-20T11:44:44.783Z,6.00
2019-04-20T11:47:16.645Z,6.97
2019-04-20T11:49:46.519Z,6.27
2019-04-20T11:52:19.396Z,6.20
2019-04-20T11:54:48.391Z,5.53
2019-04-20T11:57:19.510Z,6.10
2019-04-20T11:59:48.765Z,6.80
2019-04-20T12:02:26.985Z,6.30
2019-04-20T12:05:10.236Z,6.50
2019-04-20T12:07:28.909Z,6.00
2019-04-20T12:10:09.141Z,6.77
2019-04-20T12:12:38.972Z,5.67
2019-04-20T12:15:06.486Z,7.80
2019-04-20T12:17:37.726Z,6.43
2019-04-20T12:20:08.355Z,6.37
2019-04-20T12:22:37.923Z,8.07
2019-04-20T12:25:07.953Z,7.77
2019-04-20T12:27:42.030Z,6.40
2019-04-20T12:30:13.341Z,5.90
2019-04-20T12:32:51.905Z,5.93
2019-04-20T12:35:18.157Z,6.37
2019-04-20T12:37:51.340Z,6.90
2019-04-20T12:40:22.139Z,5.50
2019-04-20T12:42:53.050Z,5.90
2019-04-20T12:45:26.679Z,6.97
2019-04-20T12:47:55.880Z,7.93
2019-04-20T12:50:25.702Z,8.23
2019-04-20T12:52:56.647Z,6.23
2019-04-20T12:55:34.696Z,5.67
2019-04-20T12:58:04.976Z,5.90
2019-04-20T13:00:49.621Z,5.90
2019-04-20T13:03:21.413Z,5.93
2019-04-20T13:05:51.883Z,6.13
2019-04-20T13:08:28.580Z,7.03
2019-04-20T13:11:02.444Z,7.07
2019-04-20T13:14:02.278Z,6.47
2019-04-20T13:16:38.955Z,6.37
2019-04-20T13:19:11.445Z,5.60
2019-04-20T13:21:40.962Z,5.90
2019-04-20T13:24:11.383Z,5.93
2019-04-20T13:26:40.925Z,6.93
2019-04-20T13:29:13.280Z,5.60
2019-04-20T13:31:42.302Z,7.53
2019-04-20T13:34:13.148Z,8.60
2019-04-20T13:36:42.423Z,6.90
2019-04-20T13:39:12.247Z,6.07
2019-04-20T13:41:42.285Z,7.63
2019-04-20T13:44:15.781Z,6.30
2019-04-20T13:46:49.181Z,6.17
2019-04-20T13:49:18.785Z,6.20
2019-04-20T13:51:59.566Z,7.17
2019-04-20T13:54:29.878Z,5.63
2019-04-20T13:57:01.842Z,5.90
2019-04-20T13:59:48.162Z,8.57
2019-04-20T14:02:22.762Z,6.00
2019-04-20T14:04:54.849Z,7.47
2019-04-20T14:07:26.955Z,6.27
2019-04-20T14:10:03.725Z,6.00
2019-04-20T14:12:44.519Z,6.70
2019-04-20T14:15:13.214Z,6.27
2019-04-20T14:17:43.381Z,5.87
2019-04-20T14:20:15.819Z,7.17
2019-04-20T14:22:45.103Z,6.03
2019-04-20T14:25:15.353Z,5.83
2019-04-20T14:27:44.941Z,7.27
2019-04-20T14:30:15.205Z,5.77
2019-04-20T14:32:45.380Z,6.83
2019-04-20T14:35:15.159Z,7.10
2019-04-20T14:37:45.904Z,5.80
2019-04-20T14:40:16.666Z,5.70
2019-04-20T14:42:49.956Z,5.70
2019-04-20T14:45:20.544Z,7.10
2019-04-20T14:47:52.159Z,7.43
2019-04-20T14:50:25.533Z,6.87
2019-04-20T14:52:57.862Z,9.23
2019-04-20T14:55:29.258Z,6.27
2019-04-20T14:58:01.497Z,5.93
2019-04-20T15:00:51.018Z,8.70
2019-04-20T15:03:30.211Z,6.47
2019-04-20T15:06:02.040Z,6.10
2019-04-20T15:08:32.511Z,5.87
2019-04-20T15:11:05.057Z,5.13
2019-04-20T15:13:40.652Z,6.40
2019-04-20T15:16:10.876Z,5.90
2019-04-20T15:18:41.908Z,6.77
2019-04-20T15:21:19.622Z,6.37
2019-04-20T15:23:49.320Z,6.40
2019-04-20T15:26:20.444Z,5.90
2019-04-20T15:28:52.517Z,6.27
2019-04-20T15:31:21.921Z,6.47
2019-04-20T15:33:51.119Z,6.00
2019-04-20T15:36:20.541Z,5.57
2019-04-20T15:38:49.761Z,5.70
2019-04-20T15:41:19.004Z,6.00
2019-04-20T15:43:49.193Z,5.87
2019-04-20T15:46:19.404Z,5.77
2019-04-20T15:48:50.620Z,6.73
2019-04-20T15:51:20.066Z,6.03
2019-04-20T15:53:49.563Z,6.00
2019-04-20T15:56:20.614Z,5.60
2019-04-20T15:58:50.463Z,6.20
2019-04-20T16:01:23.408Z,8.00
2019-04-20T16:03:55.277Z,6.33
2019-04-20T16:06:25.286Z,6.07
2019-04-20T16:08:56.478Z,5.83
2019-04-20T16:11:26.646Z,6.17
2019-04-20T16:13:58.190Z,6.43
2019-04-20T16:16:27.857Z,6.10
2019-04-20T16:18:57.140Z,5.43
2019-04-20T16:21:29.654Z,5.87
2019-04-20T16:23:58.951Z,6.00
2019-04-20T16:26:31.488Z,6.67
2019-04-20T16:29:01.844Z,6.57
2019-04-20T16:31:34.200Z,5.53
2019-04-20T16:34:05.316Z,6.17
2019-04-20T16:36:38.759Z,5.20
2019-04-20T16:39:16.399Z,6.10
2019-04-20T16:41:42.581Z,6.00
2019-04-20T16:44:13.340Z,6.33
2019-04-20T16:46:42.583Z,6.87
2019-04-20T16:49:14.546Z,6.43
2019-04-20T16:51:45.073Z,6.67
2019-04-20T16:54:17.470Z,6.13
2019-04-20T16:56:48.562Z,5.40
2019-04-20T16:59:19.326Z,5.20
2019-04-20T17:01:52.203Z,6.53
2019-04-20T17:04:25.109Z,5.67
2019-04-20T17:07:16.526Z,5.47
2019-04-20T17:09:51.831Z,5.87
2019-04-20T17:12:23.742Z,6.73
2019-04-20T17:14:53.724Z,5.37
2019-04-20T17:17:23.166Z,6.43
2019-04-20T17:19:53.502Z,4.93
2019-04-20T17:22:25.559Z,6.13
2019-04-20T17:24:55.669Z,5.83
2019-04-20T17:27:37.163Z,5.80
2019-04-20T17:30:10.539Z,5.17
2019-04-20T17:32:41.246Z,9.00
2019-04-20T17:35:20.652Z,6.17
2019-04-20T17:37:45.281Z,7.23
2019-04-20T17:40:33.856Z,8.07
2019-04-20T17:42:59.972Z,5.57
2019-04-20T17:45:32.371Z,7.03
2019-04-20T17:48:08.920Z,7.67
2019-04-20T17:50:46.749Z,6.27
2019-04-20T17:53:10.149Z,6.77
2019-04-20T17:55:41.066Z,5.47
2019-04-20T17:58:13.768Z,5.93
2019-04-20T18:00:51.107Z,5.93
2019-04-20T18:03:58.506Z,7.07
2019-04-20T18:06:14.538Z,7.27
2019-04-20T18:08:45.856Z,5.23
2019-04-20T18:11:07.705Z,8.17
2019-04-20T18:13:34.104Z,8.10
2019-04-20T18:16:32.613Z,6.57
2019-04-20T18:19:02.028Z,7.20
2019-04-20T18:21:38.455Z,7.83
2019-04-20T18:24:14.518Z,8.10
2019-04-20T18:26:54.804Z,7.00
2019-04-20T18:29:32.277Z,7.17
2019-04-20T18:31:43.752Z,6.80
2019-04-20T18:34:20.644Z,10.23
2019-04-20T18:36:50.815Z,9.10
2019-04-20T18:39:29.163Z,10.07
2019-04-20T18:41:57.128Z,8.53
2019-04-20T18:44:30.626Z,8.23
2019-04-20T18:47:16.760Z,7.87
2019-04-20T18:49:38.678Z,8.17
2019-04-20T18:51:57.980Z,8.20
2019-04-20T18:54:32.305Z,8.70
2019-04-20T18:56:59.862Z,8.87
2019-04-20T18:59:39.968Z,10.00
2019-04-20T19:02:06.821Z,8.20
2019-04-20T19:04:33.178Z,8.23
2019-04-20T19:07:03.644Z,8.37
2019-04-20T19:09:34.660Z,8.20
2019-04-20T19:12:07.480Z,8.07
2019-04-20T19:14:49.932Z,10.80
2019-04-20T19:17:49.759Z,7.90
2019-04-20T19:20:15.920Z,8.53
2019-04-20T19:22:46.143Z,8.97
2019-04-20T19:25:18.371Z,10.37
2019-04-20T19:27:51.105Z,9.37
2019-04-20T19:30:31.378Z,10.13
2019-04-20T19:33:09.047Z,11.00
2019-04-20T19:35:34.057Z,12.97
2019-04-20T19:38:05.003Z,14.13
2019-04-20T19:40:34.382Z,11.83
2019-04-20T19:43:11.096Z,14.07
2019-04-20T19:45:46.608Z,13.73
2019-04-20T19:48:14.592Z,12.30
2019-04-20T19:50:56.029Z,12.70
2019-04-20T19:53:26.483Z,12.23
2019-04-20T19:55:47.802Z,16.70
2019-04-20T19:58:20.766Z,15.70
2019-04-20T20:00:51.781Z,14.37
2019-04-20T20:03:19.875Z,17.33
2019-04-20T20:05:53.806Z,15.33
2019-04-20T20:08:25.933Z,16.13
2019-04-20T20:11:02.805Z,17.87
2019-04-20T20:13:41.088Z,16.90
2019-04-20T20:16:10.695Z,15.97
2019-04-20T20:18:53.367Z,15.93
2019-04-20T20:21:23.726Z,14.87
2019-04-20T20:23:47.885Z,17.37
2019-04-20T20:26:24.906Z,16.43
2019-04-20T20:29:03.903Z,16.10
2019-04-20T20:31:38.452Z,15.50
2019-04-20T20:34:07.344Z,18.23
2019-04-20T20:36:38.377Z,14.50
2019-04-20T20:39:10.194Z,14.17
2019-04-20T20:41:49.025Z,13.17
2019-04-20T20:44:24.301Z,13.33
2019-04-20T20:47:00.819Z,13.83
2019-04-20T20:49:37.083Z,13.90
2019-04-20T20:52:10.172Z,14.23
2019-04-20T20:54:33.559Z,16.67
2019-04-20T20:57:03.818Z,13.47
2019-04-20T20:59:39.556Z,14.27
2019-04-20T21:02:06.718Z,12.83
2019-04-20T21:04:33.192Z,13.60
2019-04-20T21:07:04.670Z,14.93
2019-04-20T21:09:37.578Z,14.40
2019-04-20T21:12:13.858Z,18.20
2019-04-20T21:14:40.553Z,20.73
2019-04-20T21:17:16.020Z,19.70
2019-04-20T21:20:00.929Z,22.27
2019-04-20T21:22:26.871Z,23.17
2019-04-20T21:24:53.067Z,21.80
2019-04-20T21:27:24.061Z,22.07
2019-04-20T21:29:58.222Z,22.83
2019-04-20T21:32:28.222Z,19.57
2019-04-20T21:35:01.498Z,22.30
2019-04-20T21:37:34.733Z,18.07
2019-04-20T21:40:21.290Z,21.73
2019-04-20T21:42:44.549Z,15.93
2019-04-20T21:45:20.116Z,17.90
2019-04-20T21:47:44.480Z,15.67
2019-04-20T21:50:31.214Z,17.33
2019-04-20T21:52:48.475Z,21.20
2019-04-20T21:55:16.289Z,35.50
2019-04-20T21:57:51.687Z,16.70
2019-04-20T22:00:41.860Z,18.13
2019-04-20T22:03:07.754Z,18.23
2019-04-20T22:05:38.042Z,19.47
2019-04-20T22:08:11.038Z,19.07
2019-04-20T22:10:41.279Z,22.60
2019-04-20T22:13:11.931Z,25.13
2019-04-20T22:15:51.825Z,26.77
2019-04-20T22:18:18.089Z,28.60
2019-04-20T22:21:01.727Z,28.17
2019-04-20T22:23:38.820Z,23.63
2019-04-20T22:26:05.130Z,26.93
2019-04-20T22:28:22.267Z,30.20
2019-04-20T22:30:52.121Z,27.93
2019-04-20T22:33:33.608Z,29.17
2019-04-20T22:36:04.132Z,31.80
2019-04-20T22:38:37.639Z,28.63
2019-04-20T22:41:13.603Z,29.70
2019-04-20T22:43:39.398Z,29.43
2019-04-20T22:48:50.940Z,33.20
2019-04-20T22:51:30.145Z,30.07
2019-04-20T22:53:58.304Z,32.10
2019-04-20T22:56:35.447Z,28.80
2019-04-20T22:58:56.391Z,29.37
2019-04-20T23:01:31.353Z,29.77
2019-04-20T23:03:54.795Z,30.80
2019-04-20T23:06:33.385Z,39.83
2019-04-20T23:09:05.681Z,57.37
2019-04-20T23:11:33.535Z,47.17
2019-04-20T23:14:11.762Z,48.67
2019-04-20T23:16:49.241Z,50.57
2019-04-20T23:19:28.757Z,43.80
2019-04-20T23:21:58.998Z,38.97
2019-04-20T23:24:27.105Z,37.00
2019-04-20T23:26:57.363Z,33.30
2019-04-20T23:29:32.702Z,30.60
2019-04-20T23:32:04.205Z,29.60
2019-04-20T23:34:34.078Z,24.97
2019-04-20T23:37:06.759Z,27.13
2019-04-20T23:39:40.595Z,29.10
2019-04-20T23:42:11.274Z,27.73
2019-04-20T23:44:54.174Z,27.30
2019-04-20T23:47:32.477Z,24.80
2019-04-20T23:50:19.200Z,24.30
2019-04-20T23:52:59.679Z,23.97
2019-04-20T23:55:15.735Z,24.47
2019-04-20T23:57:45.981Z,20.90
